Time;durP1;ratioP1;P1;durP2;ratioP2;P2;SDS_P1;SDS_P2;PMS_P1;PMS_P2;Temp;Humidity;BMP_temperature;BMP_pressure;BME280_temperature;BME280_humidity;BME280_pressure;Samples;Min_cycle;Max_cycle;Signal;HPM_P1;HPM_P2
2023/06/27 00:01:39;;;;;;;9.50;3.15;;;16.20;99.90;;;;;;4988108;28;20042;-50
2023/06/27 00:04:09;;;;;;;7.38;3.08;;;16.20;99.90;;;;;;4988685;28;20079;-48
2023/06/27 00:06:40;;;;;;;11.67;3.47;;;16.20;99.90;;;;;;4987779;28;20167;-49
2023/06/27 00:09:10;;;;;;;10.23;2.80;;;16.20;99.90;;;;;;4970939;28;20820;-49
2023/06/27 00:11:40;;;;;;;9.60;3.25;;;16.10;99.90;;;;;;4975939;28;20035;-48
2023/06/27 00:14:08;;;;;;;14.23;3.30;;;16.10;99.90;;;;;;4967451;28;20475;-47
2023/06/27 00:16:35;;;;;;;7.80;4.00;;;16.00;99.90;;;;;;4969991;28;20274;-49
2023/06/27 00:19:04;;;;;;;13.55;3.25;;;16.00;99.90;;;;;;4987943;28;20579;-50
2023/06/27 00:21:34;;;;;;;7.00;3.53;;;16.00;99.90;;;;;;4988641;28;20109;-49
2023/06/27 00:24:00;;;;;;;13.75;4.18;;;15.90;99.90;;;;;;4988102;28;20527;-48
2023/06/27 00:26:27;;;;;;;10.10;3.92;;;15.90;99.90;;;;;;4970196;28;20038;-47
2023/06/27 00:28:52;;;;;;;14.65;4.35;;;15.80;99.90;;;;;;4987486;28;20026;-48
2023/06/27 00:31:18;;;;;;;8.52;3.05;;;15.80;99.90;;;;;;4970252;28;20391;-51
2023/06/27 00:33:44;;;;;;;8.23;3.92;;;15.80;99.90;;;;;;4970810;28;20022;-50
2023/06/27 00:36:12;;;;;;;6.65;3.13;;;15.80;99.90;;;;;;4969858;28;20026;-49
2023/06/27 00:38:37;;;;;;;12.77;3.28;;;15.80;99.90;;;;;;4987690;28;20056;-52
2023/06/27 00:41:03;;;;;;;5.93;3.00;;;15.70;99.90;;;;;;4970155;28;20018;-50
2023/06/27 00:43:28;;;;;;;9.75;3.47;;;15.70;99.90;;;;;;4988284;28;20034;-56
2023/06/27 00:45:54;;;;;;;12.85;3.90;;;15.70;99.90;;;;;;4987718;28;20030;-47
2023/06/27 00:48:20;;;;;;;12.73;3.90;;;15.70;99.90;;;;;;4987609;28;20072;-49
2023/06/27 00:50:46;;;;;;;6.75;3.05;;;15.60;99.90;;;;;;4970208;28;20061;-48
2023/06/27 00:53:12;;;;;;;13.40;4.15;;;15.60;99.90;;;;;;4988001;28;20065;-47
2023/06/27 00:55:39;;;;;;;14.75;4.10;;;15.50;99.90;;;;;;4987328;28;20042;-48
2023/06/27 00:58:06;;;;;;;9.80;3.55;;;15.60;99.90;;;;;;4987208;28;20014;-48
2023/06/27 01:00:32;;;;;;;13.10;3.70;;;15.50;99.90;;;;;;4987459;28;20463;-47
2023/06/27 01:02:57;;;;;;;16.15;4.10;;;15.50;99.90;;;;;;4969625;28;20033;-48
2023/06/27 01:05:24;;;;;;;15.85;3.53;;;15.40;99.90;;;;;;4987725;28;20049;-50
2023/06/27 01:07:57;;;;;;;11.13;3.60;;;15.30;99.90;;;;;;4986777;28;20022;-50
2023/06/27 01:10:44;;;;;;;11.55;3.25;;;15.30;99.90;;;;;;4987348;28;20038;-48
2023/06/27 01:13:25;;;;;;;17.88;3.80;;;15.30;99.90;;;;;;4968249;28;20122;-47
2023/06/27 01:15:51;;;;;;;8.82;3.58;;;15.30;99.90;;;;;;4950916;28;20023;-48
2023/06/27 01:18:20;;;;;;;12.85;3.70;;;15.20;99.90;;;;;;4985231;28;20383;-48
2023/06/27 01:20:46;;;;;;;16.10;3.88;;;15.20;99.90;;;;;;4987261;28;20134;-48
2023/06/27 01:23:33;;;;;;;13.13;3.92;;;15.20;99.90;;;;;;4987284;28;20558;-47
2023/06/27 01:26:05;;;;;;;11.50;3.67;;;15.10;99.90;;;;;;4987191;28;20282;-48
2023/06/27 01:28:32;;;;;;;13.18;3.50;;;15.10;99.90;;;;;;4986261;28;20028;-48
2023/06/27 01:31:01;;;;;;;12.20;3.53;;;15.10;99.90;;;;;;4987196;28;20038;-47
2023/06/27 01:33:41;;;;;;;12.93;3.25;;;15.00;99.90;;;;;;4987011;28;20087;-47
2023/06/27 01:36:18;;;;;;;12.48;3.30;;;15.00;99.90;;;;;;4986619;28;20022;-47
2023/06/27 01:39:06;;;;;;;16.98;3.38;;;15.00;99.90;;;;;;4967747;28;20038;-47
2023/06/27 01:41:35;;;;;;;12.15;4.00;;;14.90;99.90;;;;;;4967653;28;20030;-47
2023/06/27 01:44:04;;;;;;;12.95;4.03;;;14.90;99.90;;;;;;4967795;28;20027;-48
2023/06/27 01:46:30;;;;;;;10.68;4.25;;;14.80;99.90;;;;;;4984694;28;20035;-47
2023/06/27 01:48:57;;;;;;;15.15;3.95;;;14.80;99.90;;;;;;4987205;28;20033;-48
2023/06/27 01:51:23;;;;;;;18.67;3.85;;;14.80;99.90;;;;;;4987164;28;20493;-48
2023/06/27 01:53:48;;;;;;;10.90;3.45;;;14.80;99.90;;;;;;4986644;28;20091;-47
2023/06/27 01:56:14;;;;;;;11.07;3.67;;;14.70;99.90;;;;;;4986545;28;20258;-50
2023/06/27 01:58:40;;;;;;;8.10;3.50;;;14.70;99.90;;;;;;4969629;28;20029;-49
2023/06/27 02:01:06;;;;;;;14.55;3.97;;;14.70;99.90;;;;;;4986881;28;20056;-48
2023/06/27 02:03:31;;;;;;;11.40;3.83;;;14.70;99.90;;;;;;4986459;28;20062;-48
2023/06/27 02:05:57;;;;;;;11.85;3.42;;;14.70;99.90;;;;;;4986434;28;20026;-48
2023/06/27 02:08:22;;;;;;;13.68;4.15;;;14.60;99.90;;;;;;4986382;28;20229;-47
2023/06/27 02:10:48;;;;;;;13.27;4.28;;;14.60;99.90;;;;;;4986693;28;20052;-49
2023/06/27 02:13:13;;;;;;;13.75;4.32;;;14.60;99.90;;;;;;4986423;28;20030;-50
2023/06/27 02:15:39;;;;;;;11.30;3.95;;;14.60;99.90;;;;;;4986856;28;20513;-50
2023/06/27 02:18:04;;;;;;;13.13;3.88;;;14.60;99.90;;;;;;4986672;28;20030;-48
2023/06/27 02:20:30;;;;;;;7.43;3.35;;;14.60;99.90;;;;;;4969524;28;20557;-48
2023/06/27 02:22:56;;;;;;;14.68;4.45;;;14.60;99.90;;;;;;4986748;28;20061;-49
2023/06/27 02:25:22;;;;;;;8.00;3.58;;;14.50;99.90;;;;;;4986562;28;20514;-47
2023/06/27 02:27:47;;;;;;;10.00;3.55;;;14.50;99.90;;;;;;4985858;28;20023;-49
2023/06/27 02:30:13;;;;;;;11.02;3.78;;;14.50;99.90;;;;;;4988627;28;20499;-49
2023/06/27 02:32:38;;;;;;;14.15;4.38;;;14.40;99.90;;;;;;4989858;28;20021;-48
2023/06/27 02:35:04;;;;;;;13.68;4.40;;;14.40;99.90;;;;;;4989899;28;20026;-49
2023/06/27 02:37:30;;;;;;;11.65;3.50;;;14.40;99.90;;;;;;4989062;28;20038;-47
2023/06/27 02:39:57;;;;;;;11.23;4.22;;;14.30;99.90;;;;;;4989566;28;20026;-48
2023/06/27 02:42:22;;;;;;;15.60;4.95;;;14.30;99.90;;;;;;4986464;28;20407;-48
2023/06/27 02:44:48;;;;;;;20.65;4.30;;;14.30;99.90;;;;;;4989219;28;20026;-51
2023/06/27 02:47:14;;;;;;;12.80;4.47;;;14.30;99.90;;;;;;4988763;28;20535;-48
2023/06/27 02:49:42;;;;;;;14.00;4.53;;;14.30;99.90;;;;;;4989578;28;20421;-49
2023/06/27 02:52:07;;;;;;;7.38;3.33;;;14.20;99.90;;;;;;4988943;28;20453;-49
2023/06/27 02:54:33;;;;;;;11.63;3.30;;;14.10;99.90;;;;;;4983732;28;20130;-49
2023/06/27 02:56:59;;;;;;;18.45;4.57;;;14.10;99.90;;;;;;4998607;28;20152;-50
2023/06/27 02:59:24;;;;;;;10.77;4.05;;;14.10;99.90;;;;;;4987407;28;20025;-49
2023/06/27 03:01:50;;;;;;;12.38;4.40;;;14.10;99.90;;;;;;4979601;28;20042;-48
2023/06/27 03:04:22;;;;;;;14.57;4.45;;;14.00;99.90;;;;;;4979659;28;20038;-48
2023/06/27 03:06:48;;;;;;;11.18;4.07;;;14.00;99.90;;;;;;5002366;28;20404;-51
2023/06/27 03:09:15;;;;;;;10.57;4.10;;;14.00;99.90;;;;;;4982125;28;20049;-51
2023/06/27 03:11:40;;;;;;;11.13;4.15;;;14.00;99.90;;;;;;4980130;28;20089;-50
2023/06/27 03:14:06;;;;;;;6.90;3.95;;;14.00;99.90;;;;;;4988466;28;20026;-51
2023/06/27 03:16:31;;;;;;;15.95;4.18;;;14.00;99.90;;;;;;4988889;28;20038;-49
2023/06/27 03:18:57;;;;;;;15.73;4.90;;;14.00;99.90;;;;;;4989100;28;20030;-49
2023/06/27 03:21:22;;;;;;;10.25;3.47;;;13.90;99.90;;;;;;4988762;28;20098;-50
2023/06/27 03:23:48;;;;;;;16.00;4.30;;;13.90;99.90;;;;;;4989009;28;20498;-49
2023/06/27 03:26:14;;;;;;;8.60;3.83;;;13.90;99.90;;;;;;4988649;28;20046;-48
2023/06/27 03:28:40;;;;;;;17.45;4.68;;;13.90;99.90;;;;;;4988615;28;20034;-47
2023/06/27 03:31:05;;;;;;;20.23;5.13;;;13.90;99.90;;;;;;4989012;28;20035;-48
2023/06/27 03:33:31;;;;;;;18.48;4.47;;;13.80;99.90;;;;;;4977472;28;20038;-51
2023/06/27 03:35:57;;;;;;;11.40;3.83;;;13.90;99.90;;;;;;4969848;28;20388;-50
2023/06/27 03:38:23;;;;;;;11.48;4.13;;;13.90;99.90;;;;;;4982795;28;20034;-49
2023/06/27 03:40:48;;;;;;;12.30;3.67;;;13.90;99.90;;;;;;4988296;28;20110;-51
2023/06/27 03:43:14;;;;;;;15.18;4.50;;;13.90;99.90;;;;;;4988767;28;20018;-49
2023/06/27 03:45:40;;;;;;;11.27;4.15;;;13.90;99.90;;;;;;4988238;28;20023;-48
2023/06/27 03:48:07;;;;;;;13.38;4.18;;;13.90;99.90;;;;;;4988075;28;20403;-48
2023/06/27 03:50:32;;;;;;;17.73;4.38;;;13.90;99.90;;;;;;4971326;28;20057;-51
2023/06/27 03:53:00;;;;;;;11.85;4.07;;;13.90;99.90;;;;;;4988340;28;20034;-48
2023/06/27 03:55:25;;;;;;;14.18;4.43;;;13.90;99.90;;;;;;4987519;28;20034;-50
2023/06/27 03:57:51;;;;;;;11.23;3.92;;;13.90;99.90;;;;;;4988209;28;20029;-49
2023/06/27 04:00:17;;;;;;;15.40;4.30;;;13.90;99.90;;;;;;4988137;28;20034;-50
2023/06/27 04:02:43;;;;;;;8.52;3.92;;;13.90;99.90;;;;;;4987792;28;20062;-49
2023/06/27 04:05:08;;;;;;;9.57;3.90;;;14.00;99.90;;;;;;4988658;28;20364;-50
2023/06/27 04:07:34;;;;;;;11.27;3.95;;;14.00;99.90;;;;;;4970255;28;20031;-48
2023/06/27 04:09:59;;;;;;;11.55;4.32;;;14.00;99.90;;;;;;4988120;28;20030;-48
2023/06/27 04:12:25;;;;;;;13.27;4.43;;;14.00;99.90;;;;;;4988114;28;20479;-49
2023/06/27 04:14:50;;;;;;;7.40;3.92;;;14.00;99.90;;;;;;4988667;28;20744;-48
2023/06/27 04:17:16;;;;;;;10.65;4.00;;;14.10;99.90;;;;;;4987830;28;20430;-50
2023/06/27 04:19:41;;;;;;;13.65;3.90;;;14.10;99.90;;;;;;4988527;28;20544;-49
2023/06/27 04:22:07;;;;;;;6.95;4.00;;;14.10;99.90;;;;;;4988174;28;20034;-51
2023/06/27 04:24:32;;;;;;;10.45;4.53;;;14.10;99.90;;;;;;4988350;28;20070;-49
2023/06/27 04:26:58;;;;;;;13.43;3.97;;;14.20;99.90;;;;;;4987494;28;20041;-50
2023/06/27 04:29:24;;;;;;;8.63;4.25;;;14.20;99.90;;;;;;4988067;28;20022;-48
2023/06/27 04:31:50;;;;;;;15.05;4.75;;;14.20;99.90;;;;;;4987893;28;20384;-47
2023/06/27 04:34:15;;;;;;;12.73;4.10;;;14.20;99.90;;;;;;4988112;28;20483;-47
2023/06/27 04:36:41;;;;;;;16.80;4.00;;;14.20;99.90;;;;;;4987872;28;20075;-50
2023/06/27 04:39:08;;;;;;;11.18;3.72;;;14.30;99.90;;;;;;4988576;28;20068;-49
2023/06/27 04:41:34;;;;;;;13.40;3.60;;;14.30;99.90;;;;;;4970315;28;20479;-48
2023/06/27 04:43:59;;;;;;;14.65;4.15;;;14.30;99.90;;;;;;4988129;28;20031;-50
2023/06/27 04:46:28;;;;;;;8.75;3.70;;;14.30;99.90;;;;;;4987503;28;20475;-48
2023/06/27 04:48:58;;;;;;;19.08;4.97;;;14.30;99.90;;;;;;4987550;28;20054;-47
2023/06/27 04:51:27;;;;;;;10.70;4.43;;;14.30;99.90;;;;;;4986502;28;20090;-50
2023/06/27 04:53:53;;;;;;;7.47;3.28;;;14.40;99.90;;;;;;5039277;28;20035;-49
2023/06/27 04:56:19;;;;;;;7.50;3.55;;;14.40;99.90;;;;;;4969285;28;20023;-50
2023/06/27 04:58:44;;;;;;;10.98;3.40;;;14.40;99.90;;;;;;4982137;28;20331;-50
2023/06/27 05:01:11;;;;;;;5.75;3.00;;;14.50;99.90;;;;;;4987596;28;20105;-48
2023/06/27 05:03:41;;;;;;;8.00;3.15;;;14.50;99.90;;;;;;4987756;28;20022;-51
2023/06/27 05:06:07;;;;;;;8.40;3.42;;;14.60;99.90;;;;;;4986866;28;20084;-50
2023/06/27 05:08:34;;;;;;;11.38;3.05;;;14.60;99.90;;;;;;4987465;28;20091;-50
2023/06/27 05:11:00;;;;;;;10.38;3.38;;;14.70;99.90;;;;;;4968695;28;20490;-50
2023/06/27 05:13:26;;;;;;;12.07;3.28;;;14.70;99.90;;;;;;4970758;28;20038;-51
2023/06/27 05:15:51;;;;;;;7.28;3.03;;;14.70;99.90;;;;;;4979593;28;20026;-51
2023/06/27 05:18:16;;;;;;;11.57;3.20;;;14.80;99.90;;;;;;4976521;28;20030;-51
2023/06/27 05:20:43;;;;;;;6.75;3.25;;;14.80;99.90;;;;;;4963486;28;20047;-51
2023/06/27 05:23:09;;;;;;;12.35;3.75;;;14.90;99.90;;;;;;4958948;28;20270;-51
2023/06/27 05:25:35;;;;;;;11.75;4.03;;;14.90;99.90;;;;;;4978099;28;20415;-51
2023/06/27 05:28:00;;;;;;;14.25;2.97;;;15.00;99.90;;;;;;4986820;28;20034;-51
2023/06/27 05:30:27;;;;;;;14.35;3.40;;;15.00;99.90;;;;;;4987239;28;20030;-49
2023/06/27 05:32:54;;;;;;;11.93;3.83;;;15.10;99.90;;;;;;4986328;28;20027;-51
2023/06/27 05:35:20;;;;;;;7.45;3.17;;;15.10;99.90;;;;;;4987229;28;20058;-49
2023/06/27 05:37:45;;;;;;;5.63;3.00;;;15.20;99.90;;;;;;4986568;28;20447;-52
2023/06/27 05:40:11;;;;;;;9.95;3.33;;;15.20;99.90;;;;;;4970028;28;20125;-49
2023/06/27 05:42:37;;;;;;;5.32;3.15;;;15.30;99.90;;;;;;4969898;28;20031;-52
2023/06/27 05:45:03;;;;;;;8.77;3.08;;;15.40;99.90;;;;;;4986786;28;20080;-50
2023/06/27 05:47:28;;;;;;;6.00;2.45;;;15.40;99.90;;;;;;4969172;28;20034;-50
2023/06/27 05:49:54;;;;;;;12.77;3.47;;;15.50;99.90;;;;;;4986903;28;20086;-51
2023/06/27 05:52:19;;;;;;;9.43;3.90;;;15.50;99.90;;;;;;4986897;28;20038;-51
2023/06/27 05:54:45;;;;;;;3.90;2.45;;;15.50;99.90;;;;;;4986953;28;20487;-49
2023/06/27 05:57:10;;;;;;;8.05;3.22;;;15.60;99.90;;;;;;4986235;28;20027;-48
2023/06/27 05:59:36;;;;;;;12.18;2.97;;;15.60;99.90;;;;;;4986579;28;20027;-51
2023/06/27 06:02:03;;;;;;;3.95;2.70;;;15.70;99.90;;;;;;4986806;28;20499;-49
2023/06/27 06:04:29;;;;;;;9.50;3.17;;;15.80;99.90;;;;;;4988758;28;20167;-50
2023/06/27 06:06:55;;;;;;;11.50;3.22;;;15.80;99.90;;;;;;4988597;28;20514;-50
2023/06/27 06:09:20;;;;;;;6.80;2.92;;;15.90;99.90;;;;;;4989830;28;20018;-50
2023/06/27 06:11:46;;;;;;;11.90;3.38;;;16.00;99.90;;;;;;4990017;28;20156;-51
2023/06/27 06:14:11;;;;;;;7.15;2.75;;;16.10;99.90;;;;;;4990041;28;20038;-51
2023/06/27 06:16:37;;;;;;;11.55;3.03;;;16.10;99.90;;;;;;4988796;28;20034;-49
2023/06/27 06:19:03;;;;;;;7.05;3.15;;;16.20;99.90;;;;;;4972022;28;20516;-49
2023/06/27 06:21:30;;;;;;;7.55;2.95;;;16.20;99.90;;;;;;4989171;28;20033;-51
2023/06/27 06:23:55;;;;;;;8.55;3.15;;;16.30;99.90;;;;;;4989843;28;20027;-50
2023/06/27 06:26:21;;;;;;;10.75;3.03;;;16.30;99.90;;;;;;4989481;28;20505;-51
2023/06/27 06:28:46;;;;;;;10.77;2.88;;;16.40;99.90;;;;;;4989755;28;20034;-50
2023/06/27 06:31:16;;;;;;;9.30;3.35;;;16.40;99.90;;;;;;4972148;28;20034;-51
2023/06/27 06:33:45;;;;;;;5.35;2.60;;;16.50;99.90;;;;;;4989568;28;20419;-49
2023/06/27 06:36:11;;;;;;;10.07;3.30;;;16.60;99.90;;;;;;4988645;28;20105;-51
2023/06/27 06:38:36;;;;;;;8.55;3.53;;;16.70;99.90;;;;;;4984150;28;20070;-49
2023/06/27 06:41:02;;;;;;;8.13;3.25;;;16.80;99.90;;;;;;4980149;28;20119;-51
2023/06/27 06:43:28;;;;;;;9.70;2.85;;;16.90;99.90;;;;;;4979098;28;20019;-51
2023/06/27 06:45:53;;;;;;;5.32;2.40;;;16.90;99.90;;;;;;4978526;28;20054;-50
2023/06/27 06:48:19;;;;;;;7.25;2.53;;;17.00;99.90;;;;;;4988743;28;20087;-51
2023/06/27 06:50:45;;;;;;;8.43;2.92;;;17.10;99.90;;;;;;4987779;28;20034;-51
2023/06/27 06:53:11;;;;;;;6.95;2.85;;;17.20;99.90;;;;;;4980651;28;20176;-49
2023/06/27 06:55:36;;;;;;;7.13;3.00;;;17.30;99.90;;;;;;4980877;28;20450;-49
2023/06/27 06:58:04;;;;;;;6.30;2.35;;;17.40;99.90;;;;;;4988641;28;20030;-49
2023/06/27 07:00:29;;;;;;;9.55;2.80;;;17.50;99.90;;;;;;4965255;28;20025;-51
2023/06/27 07:02:55;;;;;;;10.68;3.25;;;17.60;99.90;;;;;;4983603;28;20031;-50
2023/06/27 07:05:21;;;;;;;7.32;2.75;;;17.70;99.90;;;;;;4988541;28;20553;-50
2023/06/27 07:07:47;;;;;;;7.28;2.83;;;17.70;99.90;;;;;;4982922;28;20045;-52
2023/06/27 07:10:13;;;;;;;5.75;2.63;;;17.80;99.90;;;;;;4985852;28;20121;-52
2023/06/27 07:12:38;;;;;;;4.18;2.17;;;18.00;99.90;;;;;;4978163;28;20115;-52
2023/06/27 07:15:04;;;;;;;6.03;2.58;;;18.10;99.90;;;;;;4979758;28;20409;-52
2023/06/27 07:17:30;;;;;;;11.00;2.60;;;18.30;99.90;;;;;;4978456;28;20032;-48
2023/06/27 07:19:56;;;;;;;8.32;2.22;;;18.40;99.90;;;;;;4970216;28;20039;-50
2023/06/27 07:22:21;;;;;;;5.07;1.80;;;18.30;99.90;;;;;;4980441;28;20506;-52
2023/06/27 07:24:47;;;;;;;6.60;2.30;;;18.30;99.90;;;;;;4989045;28;20030;-51
2023/06/27 07:27:13;;;;;;;6.30;2.30;;;18.40;99.90;;;;;;4988123;28;20044;-51
2023/06/27 07:29:39;;;;;;;8.38;2.55;;;18.50;99.90;;;;;;4971398;28;20065;-51
2023/06/27 07:32:05;;;;;;;7.22;1.95;;;18.60;99.90;;;;;;4988950;28;20080;-52
2023/06/27 07:34:30;;;;;;;9.15;2.38;;;18.80;99.90;;;;;;4988970;28;20291;-52
2023/06/27 07:36:56;;;;;;;7.22;1.95;;;19.10;99.90;;;;;;4988139;28;20035;-52
2023/06/27 07:39:21;;;;;;;7.47;1.92;;;19.10;99.90;;;;;;4989052;28;20034;-52
2023/06/27 07:41:47;;;;;;;4.40;1.48;;;19.20;99.90;;;;;;4986544;28;20038;-52
2023/06/27 07:44:12;;;;;;;7.25;1.52;;;19.30;99.30;;;;;;4959077;28;20130;-52
2023/06/27 07:46:38;;;;;;;6.80;2.10;;;19.50;99.20;;;;;;4970242;28;20156;-53
2023/06/27 07:49:03;;;;;;;8.00;2.30;;;19.50;97.70;;;;;;4986919;28;20066;-53
2023/06/27 07:51:31;;;;;;;5.28;1.58;;;19.70;98.00;;;;;;4954512;28;20169;-52
2023/06/27 07:53:56;;;;;;;6.03;1.95;;;19.80;97.70;;;;;;4984308;28;20033;-49
2023/06/27 07:56:22;;;;;;;4.95;2.05;;;19.90;97.20;;;;;;4970315;28;20027;-52
2023/06/27 07:58:48;;;;;;;4.28;1.67;;;20.10;96.90;;;;;;4974155;28;20213;-52
2023/06/27 08:01:13;;;;;;;6.72;1.98;;;20.00;96.70;;;;;;5014592;28;20037;-51
2023/06/27 08:03:39;;;;;;;6.97;2.05;;;20.00;96.60;;;;;;4987050;28;20446;-53
2023/06/27 08:06:05;;;;;;;4.05;1.38;;;20.10;95.60;;;;;;4970750;28;20102;-52
2023/06/27 08:08:30;;;;;;;6.63;2.40;;;20.20;95.80;;;;;;4989012;28;20026;-54
2023/06/27 08:10:56;;;;;;;3.55;1.63;;;20.40;95.90;;;;;;4989227;28;20383;-52
2023/06/27 08:13:25;;;;;;;6.10;2.20;;;21.00;95.00;;;;;;4971234;28;20506;-54
2023/06/27 08:15:50;;;;;;;5.03;1.70;;;21.00;93.70;;;;;;4987236;28;20038;-52
2023/06/27 08:18:16;;;;;;;4.50;2.00;;;21.00;93.10;;;;;;4988625;28;20027;-53
2023/06/27 08:20:42;;;;;;;4.10;1.55;;;21.10;93.30;;;;;;4988666;28;20553;-52
2023/06/27 08:23:08;;;;;;;5.00;1.90;;;21.40;93.40;;;;;;4989060;28;20030;-52
2023/06/27 08:25:33;;;;;;;3.35;1.52;;;21.90;93.60;;;;;;4988718;28;20030;-53
2023/06/27 08:27:59;;;;;;;4.45;1.77;;;22.80;91.20;;;;;;4987513;28;20054;-53
2023/06/27 08:30:27;;;;;;;4.55;1.73;;;24.10;86.80;;;;;;4988844;28;20116;-53
2023/06/27 08:32:54;;;;;;;3.22;1.55;;;25.10;81.40;;;;;;4988053;28;20035;-51
2023/06/27 08:35:20;;;;;;;7.50;1.92;;;25.80;76.90;;;;;;4988456;28;20092;-52
2023/06/27 08:37:46;;;;;;;5.72;1.58;;;26.30;74.50;;;;;;4988232;28;20445;-51
2023/06/27 08:40:19;;;;;;;4.88;1.92;;;25.80;75.40;;;;;;4987867;28;20117;-52
2023/06/27 08:42:45;;;;;;;5.47;1.58;;;25.10;75.50;;;;;;4984584;28;20053;-51
2023/06/27 08:45:11;;;;;;;5.28;1.70;;;24.10;76.70;;;;;;4988157;28;20065;-51
2023/06/27 08:47:39;;;;;;;3.53;1.55;;;23.50;78.30;;;;;;4987982;28;20054;-51
2023/06/27 08:50:07;;;;;;;3.60;1.38;;;24.10;78.50;;;;;;4988398;28;20537;-52
2023/06/27 08:52:37;;;;;;;6.63;1.73;;;23.80;77.40;;;;;;4988582;28;20046;-51
2023/06/27 08:55:06;;;;;;;2.67;1.58;;;23.30;77.10;;;;;;4970503;28;20383;-51
2023/06/27 08:57:35;;;;;;;4.07;1.30;;;22.70;78.50;;;;;;4982087;28;20043;-51
2023/06/27 09:00:13;;;;;;;5.68;1.60;;;22.30;79.70;;;;;;4988245;28;20069;-51
2023/06/27 09:02:40;;;;;;;7.70;1.92;;;21.80;81.60;;;;;;4987568;28;20076;-52
2023/06/27 09:05:07;;;;;;;3.95;1.55;;;22.90;81.90;;;;;;4987701;28;20045;-51
2023/06/27 09:07:33;;;;;;;3.40;1.52;;;24.30;78.20;;;;;;5008795;28;20072;-52
2023/06/27 09:09:59;;;;;;;5.25;1.58;;;25.90;76.70;;;;;;4991510;28;20451;-52
2023/06/27 09:12:27;;;;;;;3.60;1.35;;;27.30;72.20;;;;;;4987596;28;20037;-52
2023/06/27 09:14:53;;;;;;;3.67;1.30;;;27.20;68.40;;;;;;4987201;28;20091;-52
2023/06/27 09:17:18;;;;;;;5.10;1.20;;;27.10;68.30;;;;;;4985954;28;20035;-51
2023/06/27 09:19:44;;;;;;;5.10;1.50;;;26.20;68.90;;;;;;4986788;28;20763;-52
2023/06/27 09:22:10;;;;;;;3.33;1.30;;;26.60;68.90;;;;;;4986449;28;20032;-53
2023/06/27 09:24:40;;;;;;;2.05;1.02;;;26.40;67.90;;;;;;4986514;28;20076;-53
2023/06/27 09:27:07;;;;;;;4.25;1.23;;;26.60;69.00;;;;;;4980894;28;20030;-53
2023/06/27 09:29:35;;;;;;;5.30;1.60;;;26.00;69.30;;;;;;4986482;28;20406;-51
2023/06/27 09:32:06;;;;;;;4.95;1.50;;;25.40;70.40;;;;;;4969818;28;20030;-53
2023/06/27 09:34:32;;;;;;;4.57;1.35;;;26.20;68.10;;;;;;4968896;28;20027;-53
2023/06/27 09:37:01;;;;;;;1.25;1.13;;;26.80;65.70;;;;;;4986233;28;20553;-53
2023/06/27 09:39:27;;;;;;;5.87;1.30;;;26.40;66.00;;;;;;4988779;28;20087;-52
2023/06/27 09:41:53;;;;;;;4.75;1.30;;;25.60;66.60;;;;;;4992307;28;20282;-52
2023/06/27 09:44:27;;;;;;;6.43;1.60;;;24.90;69.40;;;;;;4990611;28;20109;-51
2023/06/27 09:46:53;;;;;;;6.32;1.70;;;24.30;71.10;;;;;;4985833;28;20038;-53
2023/06/27 09:49:20;;;;;;;4.25;1.20;;;23.80;70.80;;;;;;4989914;28;20628;-52
2023/06/27 09:51:49;;;;;;;5.70;1.67;;;24.50;72.30;;;;;;4990107;28;20087;-52
2023/06/27 09:54:19;;;;;;;5.38;1.45;;;26.20;70.50;;;;;;4973407;28;20027;-54
2023/06/27 09:56:46;;;;;;;;;;;27.30;66.70;;;;;;4973084;28;20034;-53
2023/06/27 09:59:12;;;;;;;2.85;1.33;;;28.10;64.60;;;;;;4990457;28;19909;-53
2023/06/27 10:01:40;;;;;;;5.07;1.65;;;27.60;63.50;;;;;;4990162;28;20063;-52
2023/06/27 10:04:06;;;;;;;3.50;1.52;;;26.80;66.00;;;;;;4990179;28;20043;-53
2023/06/27 10:06:34;;;;;;;3.80;1.85;;;25.80;68.80;;;;;;5004863;28;20584;-51
2023/06/27 10:09:00;;;;;;;1.55;0.98;;;25.10;67.30;;;;;;4989748;28;20053;-52
2023/06/27 10:11:27;;;;;;;5.68;1.33;;;26.10;67.30;;;;;;4987182;28;20026;-53
2023/06/27 10:13:52;;;;;;;6.10;1.08;;;27.60;63.70;;;;;;4989793;28;20037;-52
2023/06/27 10:16:19;;;;;;;6.32;1.40;;;27.20;63.30;;;;;;4989355;28;20235;-53
2023/06/27 10:18:44;;;;;;;4.57;1.23;;;27.30;65.40;;;;;;4989671;28;20029;-53
2023/06/27 10:21:11;;;;;;;4.78;1.70;;;28.30;63.30;;;;;;4989916;28;20475;-54
2023/06/27 10:23:39;;;;;;;9.48;1.50;;;29.30;61.90;;;;;;4989991;28;20023;-54
2023/06/27 10:26:05;;;;;;;5.82;1.30;;;30.50;60.40;;;;;;4989578;28;20033;-54
2023/06/27 10:28:31;;;;;;;4.68;1.10;;;31.50;59.40;;;;;;4989986;28;20034;-54
2023/06/27 10:30:57;;;;;;;3.95;1.30;;;31.00;57.10;;;;;;4989872;28;20022;-53
2023/06/27 10:33:28;;;;;;;4.20;1.30;;;30.20;57.50;;;;;;4989905;28;20125;-53
2023/06/27 10:36:07;;;;;;;2.88;1.20;;;30.20;56.70;;;;;;4989813;28;20139;-53
2023/06/27 10:38:34;;;;;;;2.63;1.10;;;30.80;55.70;;;;;;4989797;28;20022;-52
2023/06/27 10:41:06;;;;;;;2.42;1.10;;;31.40;55.80;;;;;;4989686;28;20034;-53
2023/06/27 10:43:38;;;;;;;4.45;1.20;;;32.20;53.90;;;;;;4989778;28;20037;-53
2023/06/27 10:46:16;;;;;;;5.53;1.40;;;32.70;54.40;;;;;;4979223;28;20497;-53
2023/06/27 10:49:03;;;;;;;4.68;1.30;;;32.30;53.50;;;;;;4987950;28;20080;-53
2023/06/27 10:51:41;;;;;;;3.22;1.00;;;30.50;54.10;;;;;;4987580;28;20129;-52
2023/06/27 10:54:12;;;;;;;2.30;1.05;;;29.50;57.60;;;;;;4978918;28;20030;-53
2023/06/27 10:56:45;;;;;;;4.82;1.10;;;29.20;56.20;;;;;;4986172;28;20105;-52
2023/06/27 10:59:19;;;;;;;4.55;1.10;;;29.80;56.10;;;;;;5012403;28;20031;-53
2023/06/27 11:01:51;;;;;;;3.22;1.20;;;30.70;54.10;;;;;;5000548;28;20566;-52
2023/06/27 11:04:26;;;;;;;2.63;1.05;;;30.40;54.30;;;;;;5008690;28;20058;-53
2023/06/27 11:07:01;;;;;;;5.43;1.20;;;30.30;53.30;;;;;;5037134;28;20020;-52
2023/06/27 11:09:29;;;;;;;2.38;1.13;;;29.40;55.20;;;;;;5073439;28;20032;-52
2023/06/27 11:12:08;;;;;;;4.18;1.30;;;28.10;57.10;;;;;;5079797;28;20022;-52
2023/06/27 11:14:37;;;;;;;5.28;1.30;;;27.60;58.30;;;;;;5008531;28;20064;-51
2023/06/27 11:17:03;;;;;;;2.95;1.50;;;26.40;59.20;;;;;;5008675;28;20083;-51
2023/06/27 11:19:33;;;;;;;7.35;1.50;;;25.60;59.30;;;;;;5008641;28;20123;-51
2023/06/27 11:21:59;;;;;;;;;;;25.90;61.20;;;;;;5009078;28;20105;-52
2023/06/27 11:24:26;;;;;;;5.53;1.40;;;26.90;61.10;;;;;;5008796;28;20358;-51
2023/06/27 11:26:52;;;;;;;6.00;1.70;;;27.80;57.20;;;;;;5007670;28;20540;-52
2023/06/27 11:29:18;;;;;;;4.53;1.10;;;29.00;56.00;;;;;;5008967;28;20026;-52
2023/06/27 11:31:43;;;;;;;3.40;1.10;;;29.80;56.10;;;;;;5008500;28;20475;-52
2023/06/27 11:34:09;;;;;;;3.63;1.10;;;30.00;53.70;;;;;;5008398;28;20475;-51
2023/06/27 11:36:38;;;;;;;3.17;1.20;;;28.90;54.30;;;;;;5007984;28;20023;-51
2023/06/27 11:39:04;;;;;;;2.10;1.00;;;27.70;56.00;;;;;;5008460;28;20123;-52
2023/06/27 11:41:30;;;;;;;6.05;1.20;;;27.10;55.90;;;;;;5008676;28;20444;-52
2023/06/27 11:43:56;;;;;;;4.63;1.58;;;26.20;57.70;;;;;;4990760;28;20047;-52
2023/06/27 11:46:22;;;;;;;7.53;1.55;;;25.70;59.50;;;;;;5007892;28;20030;-51
2023/06/27 11:48:47;;;;;;;5.97;1.30;;;25.10;61.10;;;;;;4988417;28;20030;-51
2023/06/27 11:51:14;;;;;;;1.85;1.30;;;24.40;62.30;;;;;;4977510;28;20034;-52
2023/06/27 11:53:48;;;;;;;5.72;1.52;;;23.80;67.20;;;;;;4978961;28;20022;-51
2023/06/27 11:56:13;;;;;;;7.18;2.00;;;22.60;74.40;;;;;;4984710;28;20038;-51
2023/06/27 11:58:39;;;;;;;6.25;2.05;;;22.00;83.90;;;;;;4980340;28;20069;-52
2023/06/27 12:01:15;;;;;;;4.72;1.45;;;21.30;87.30;;;;;;4977524;28;20046;-51
2023/06/27 12:03:47;;;;;;;3.38;1.75;;;20.70;90.80;;;;;;4977934;28;20556;-51
2023/06/27 12:06:31;;;;;;;6.72;2.13;;;20.20;92.40;;;;;;4985440;28;20036;-51
2023/06/27 12:08:58;;;;;;;5.40;1.95;;;19.80;94.20;;;;;;4986516;28;20015;-49
2023/06/27 12:11:34;;;;;;;5.97;2.10;;;19.20;96.00;;;;;;4988038;28;20027;-51
2023/06/27 12:14:00;;;;;;;4.40;2.10;;;18.80;99.90;;;;;;4988632;28;20101;-51
2023/06/27 12:16:33;;;;;;;3.13;2.05;;;18.50;99.90;;;;;;4970263;28;20030;-51
2023/06/27 12:19:07;;;;;;;5.53;2.08;;;18.30;99.90;;;;;;4987811;28;20044;-50
2023/06/27 12:21:33;;;;;;;4.25;1.83;;;18.20;99.90;;;;;;4988259;28;20061;-47
2023/06/27 12:23:58;;;;;;;6.63;2.40;;;18.30;99.90;;;;;;4987952;28;20495;-50
2023/06/27 12:26:24;;;;;;;5.93;2.38;;;18.30;99.90;;;;;;4987368;28;20061;-49
2023/06/27 12:28:57;;;;;;;4.68;1.98;;;18.60;99.90;;;;;;4988089;28;20030;-49
2023/06/27 12:31:23;;;;;;;4.25;2.00;;;18.80;99.90;;;;;;4987610;28;20031;-50
2023/06/27 12:33:50;;;;;;;2.50;2.03;;;19.70;99.90;;;;;;4970173;28;20018;-51
2023/06/27 12:36:17;;;;;;;6.38;1.70;;;20.30;99.90;;;;;;4987361;28;20022;-51
2023/06/27 12:38:43;;;;;;;3.70;1.65;;;20.70;99.90;;;;;;4970601;28;20057;-50
2023/06/27 12:41:09;;;;;;;2.08;1.30;;;21.10;99.90;;;;;;4987931;28;20027;-51
2023/06/27 12:43:34;;;;;;;2.90;1.13;;;21.40;99.90;;;;;;4970549;28;20157;-49